Time;durP1;ratioP1;P1;durP2;ratioP2;P2;SDS_P1;SDS_P2;PMS_P1;PMS_P2;Temp;Humidity;BMP_temperature;BMP_pressure;BME280_temperature;BME280_humidity;BME280_pressure;Samples;Min_cycle;Max_cycle;Signal;HPM_P1;HPM_P2
2024/04/05 00:01:18;;;;;;;3.67;1.13;;;;;;;;;;758319;183;800061;-70
2024/04/05 00:03:42;;;;;;;2.40;1.10;;;;;;;;;;765711;183;861216;-69
2024/04/05 00:06:08;;;;;;;3.07;1.10;;;;;;;;;;755526;183;706041;-69
2024/04/05 00:08:34;;;;;;;3.40;1.63;;;;;;;;;;756082;183;718541;-70
2024/04/05 00:11:00;;;;;;;3.30;1.30;;;;;;;;;;761969;184;752515;-69
2024/04/05 00:13:26;;;;;;;3.90;1.10;;;;;;;;;;754159;184;802502;-69
2024/04/05 00:15:52;;;;;;;2.70;1.07;;;;;;;;;;749696;184;811592;-70
2024/04/05 00:18:20;;;;;;;2.63;1.10;;;;;;;;;;760981;184;822109;-69
2024/04/05 00:20:45;;;;;;;2.40;0.97;;;;;;;;;;759632;183;715841;-70
2024/04/05 00:23:11;;;;;;;3.65;0.93;;;;;;;;;;752219;183;822381;-69
2024/04/05 00:25:37;;;;;;;2.13;1.00;;;;;;;;;;753398;185;882656;-70
2024/04/05 00:28:02;;;;;;;3.60;1.27;;;;;;;;;;757452;183;933637;-70
2024/04/05 00:30:28;;;;;;;2.83;1.10;;;;;;;;;;755350;184;703265;-69
2024/04/05 00:32:54;;;;;;;2.33;1.00;;;;;;;;;;755053;181;908376;-70
2024/04/05 00:35:20;;;;;;;2.73;1.20;;;;;;;;;;763114;183;722317;-70
2024/04/05 00:37:46;;;;;;;2.43;1.33;;;;;;;;;;749973;184;806443;-70
2024/04/05 00:40:12;;;;;;;3.07;1.30;;;;;;;;;;754577;183;1012461;-70
2024/04/05 00:42:38;;;;;;;3.70;1.20;;;;;;;;;;763547;184;916785;-70
2024/04/05 00:45:04;;;;;;;3.70;1.30;;;;;;;;;;754137;183;825470;-69
2024/04/05 00:47:29;;;;;;;3.55;1.10;;;;;;;;;;758825;183;825043;-70
2024/04/05 00:49:55;;;;;;;2.50;1.20;;;;;;;;;;760739;184;806140;-70
2024/04/05 00:52:21;;;;;;;2.30;0.93;;;;;;;;;;752555;183;816398;-70
2024/04/05 00:54:47;;;;;;;3.00;1.40;;;;;;;;;;753056;184;799178;-69
2024/04/05 00:57:13;;;;;;;2.13;0.90;;;;;;;;;;759417;182;806422;-70
2024/04/05 00:59:39;;;;;;;2.70;1.20;;;;;;;;;;756053;183;624497;-69
2024/04/05 01:02:04;;;;;;;2.67;0.90;;;;;;;;;;763132;182;711283;-70
2024/04/05 01:04:30;;;;;;;2.20;1.00;;;;;;;;;;760907;182;902084;-71
2024/04/05 01:06:56;;;;;;;3.20;1.10;;;;;;;;;;760332;184;710934;-69
2024/04/05 01:09:22;;;;;;;2.30;0.87;;;;;;;;;;758702;183;859544;-70
2024/04/05 01:11:54;;;;;;;2.20;1.15;;;;;;;;;;754203;183;677694;-70
2024/04/05 01:14:19;;;;;;;3.97;1.30;;;;;;;;;;761854;184;692280;-70
2024/04/05 01:16:45;;;;;;;2.70;1.00;;;;;;;;;;757211;183;717986;-69
2024/04/05 01:19:11;;;;;;;2.33;1.03;;;;;;;;;;757289;184;707808;-69
2024/04/05 01:21:37;;;;;;;3.00;1.10;;;;;;;;;;756082;183;751989;-69
2024/04/05 01:24:03;;;;;;;3.22;1.20;;;;;;;;;;763598;183;662040;-70
2024/04/05 01:26:29;;;;;;;4.00;1.13;;;;;;;;;;757100;183;802701;-68
2024/04/05 01:28:54;;;;;;;2.87;1.20;;;;;;;;;;757835;183;689236;-69
2024/04/05 01:31:20;;;;;;;2.42;1.05;;;;;;;;;;758302;183;683781;-69
2024/04/05 01:33:46;;;;;;;2.30;1.00;;;;;;;;;;752332;183;735282;-69
2024/04/05 01:36:12;;;;;;;2.40;1.27;;;;;;;;;;757634;184;644490;-68
2024/04/05 01:38:38;;;;;;;3.10;1.50;;;;;;;;;;760066;184;711178;-69
2024/04/05 01:41:04;;;;;;;2.87;1.33;;;;;;;;;;758610;183;823685;-68
2024/04/05 01:43:29;;;;;;;2.30;1.10;;;;;;;;;;755820;183;758079;-69
2024/04/05 01:45:55;;;;;;;2.10;0.93;;;;;;;;;;760824;184;714201;-69
2024/04/05 01:48:21;;;;;;;5.47;1.30;;;;;;;;;;761677;183;813252;-70
2024/04/05 01:50:47;;;;;;;3.63;1.27;;;;;;;;;;756307;183;804426;-70
2024/04/05 01:53:13;;;;;;;2.77;1.20;;;;;;;;;;759822;183;688702;-70
2024/04/05 01:55:39;;;;;;;4.30;1.47;;;;;;;;;;760731;183;679437;-70
2024/04/05 01:58:05;;;;;;;2.50;1.13;;;;;;;;;;762543;183;740397;-69
2024/04/05 02:00:30;;;;;;;3.60;1.27;;;;;;;;;;756689;184;703932;-70
2024/04/05 02:02:56;;;;;;;2.27;1.10;;;;;;;;;;761282;183;740465;-69
2024/04/05 02:05:22;;;;;;;2.60;1.10;;;;;;;;;;756741;184;813909;-70
2024/04/05 02:07:48;;;;;;;2.97;1.00;;;;;;;;;;759283;183;771882;-70
2024/04/05 02:10:14;;;;;;;2.20;1.10;;;;;;;;;;759358;184;712034;-69
2024/04/05 02:12:40;;;;;;;6.23;1.37;;;;;;;;;;757616;184;654293;-69
2024/04/05 02:15:06;;;;;;;2.70;1.30;;;;;;;;;;760279;183;813033;-68
2024/04/05 02:17:31;;;;;;;2.83;1.10;;;;;;;;;;759967;184;619056;-69
2024/04/05 02:19:57;;;;;;;2.50;1.30;;;;;;;;;;755935;184;673322;-69
2024/04/05 02:22:23;;;;;;;4.63;1.37;;;;;;;;;;756994;184;766782;-70
2024/04/05 02:24:49;;;;;;;3.20;1.43;;;;;;;;;;759356;184;642073;-68
2024/04/05 02:27:16;;;;;;;3.33;1.57;;;;;;;;;;761472;184;653241;-69
2024/04/05 02:29:41;;;;;;;2.90;1.43;;;;;;;;;;757508;183;640022;-69
2024/04/05 02:32:07;;;;;;;2.53;1.10;;;;;;;;;;756632;183;833013;-69
2024/04/05 02:34:33;;;;;;;3.10;1.30;;;;;;;;;;760329;183;783952;-70
2024/04/05 02:36:59;;;;;;;3.20;1.30;;;;;;;;;;756155;184;789221;-69
2024/04/05 02:39:25;;;;;;;3.73;1.37;;;;;;;;;;760031;183;707208;-69
2024/04/05 02:41:50;;;;;;;2.30;1.00;;;;;;;;;;756041;184;815225;-69
2024/04/05 02:44:16;;;;;;;2.80;1.67;;;;;;;;;;758351;184;696709;-69
2024/04/05 02:46:42;;;;;;;2.57;1.27;;;;;;;;;;753851;184;703041;-69
2024/04/05 02:49:08;;;;;;;7.83;1.40;;;;;;;;;;756053;182;844853;-70
2024/04/05 02:51:34;;;;;;;4.10;1.40;;;;;;;;;;759676;183;802528;-69
2024/04/05 02:54:00;;;;;;;2.60;1.07;;;;;;;;;;759046;183;766573;-69
2024/04/05 02:56:25;;;;;;;3.70;1.20;;;;;;;;;;752037;184;808322;-69
2024/04/05 02:58:51;;;;;;;2.60;1.17;;;;;;;;;;761484;184;768037;-70
2024/04/05 03:01:17;;;;;;;2.83;1.57;;;;;;;;;;755517;183;814996;-69
2024/04/05 03:03:43;;;;;;;3.67;1.10;;;;;;;;;;755558;184;801308;-70
2024/04/05 03:06:09;;;;;;;3.22;1.42;;;;;;;;;;756510;184;912594;-68
2024/04/05 03:08:35;;;;;;;2.97;1.00;;;;;;;;;;756135;183;710795;-69
2024/04/05 03:11:01;;;;;;;2.47;1.10;;;;;;;;;;753339;183;876915;-68
2024/04/05 03:13:26;;;;;;;5.77;1.37;;;;;;;;;;761608;184;617064;-69
2024/04/05 03:15:52;;;;;;;3.53;1.12;;;;;;;;;;763497;183;631508;-69
2024/04/05 03:18:18;;;;;;;5.80;1.30;;;;;;;;;;753961;183;823333;-69
2024/04/05 03:20:44;;;;;;;2.43;1.20;;;;;;;;;;761944;184;617839;-68
2024/04/05 03:23:10;;;;;;;6.80;1.23;;;;;;;;;;761656;183;615564;-67
2024/04/05 03:25:36;;;;;;;15.37;2.03;;;;;;;;;;760198;182;628177;-69
2024/04/05 03:28:01;;;;;;;2.00;0.80;;;;;;;;;;760812;183;744526;-68
2024/04/05 03:30:27;;;;;;;2.47;1.40;;;;;;;;;;760513;183;768556;-69
2024/04/05 03:32:53;;;;;;;4.17;1.10;;;;;;;;;;754467;183;712204;-69
2024/04/05 03:35:19;;;;;;;2.13;0.90;;;;;;;;;;755807;183;798839;-69
2024/04/05 03:37:48;;;;;;;3.30;1.20;;;;;;;;;;761287;183;726536;-69
2024/04/05 03:40:11;;;;;;;3.70;1.17;;;;;;;;;;754900;184;626412;-69
2024/04/05 03:42:36;;;;;;;124.40;8.90;;;;;;;;;;756808;184;732643;-69
2024/04/05 03:45:02;;;;;;;19.53;2.30;;;;;;;;;;760541;183;768377;-69
2024/04/05 03:47:28;;;;;;;8.40;1.67;;;;;;;;;;761993;183;795445;-69
2024/04/05 03:49:54;;;;;;;2.97;1.53;;;;;;;;;;755101;184;744540;-69
2024/04/05 03:52:21;;;;;;;2.95;1.23;;;;;;;;;;761398;183;630758;-70
2024/04/05 03:54:46;;;;;;;7.70;1.30;;;;;;;;;;758684;183;686131;-69
2024/04/05 03:57:12;;;;;;;2.47;1.07;;;;;;;;;;763378;183;631809;-68
2024/04/05 03:59:38;;;;;;;3.30;1.30;;;;;;;;;;759733;183;745629;-68
2024/04/05 04:02:04;;;;;;;5.23;1.37;;;;;;;;;;763095;183;648452;-69
2024/04/05 04:04:30;;;;;;;2.87;1.70;;;;;;;;;;754843;181;640702;-68
2024/04/05 04:06:56;;;;;;;2.57;1.17;;;;;;;;;;757311;183;630040;-68
2024/04/05 04:09:22;;;;;;;2.10;0.93;;;;;;;;;;757864;184;634709;-68
2024/04/05 04:11:48;;;;;;;2.23;1.00;;;;;;;;;;755754;184;678278;-69
2024/04/05 04:14:14;;;;;;;2.10;1.00;;;;;;;;;;755359;183;730967;-69
2024/04/05 04:16:40;;;;;;;3.70;1.60;;;;;;;;;;759016;184;722974;-69
2024/04/05 04:19:07;;;;;;;2.70;1.50;;;;;;;;;;755426;183;671844;-68
2024/04/05 04:21:31;;;;;;;3.17;1.40;;;;;;;;;;755185;183;737522;-68
2024/04/05 04:23:57;;;;;;;3.67;1.40;;;;;;;;;;759790;183;865799;-69
2024/04/05 04:26:23;;;;;;;6.93;1.77;;;;;;;;;;752968;183;650601;-69
2024/04/05 04:28:49;;;;;;;4.63;1.40;;;;;;;;;;762302;184;627296;-68
2024/04/05 04:31:16;;;;;;;3.73;1.67;;;;;;;;;;755838;183;647065;-70
2024/04/05 04:33:42;;;;;;;6.87;3.08;;;;;;;;;;762123;183;946747;-69
2024/04/05 04:36:08;;;;;;;4.30;1.40;;;;;;;;;;756366;183;716465;-69
2024/04/05 04:38:34;;;;;;;2.90;1.60;;;;;;;;;;763147;182;627881;-69
2024/04/05 04:40:59;;;;;;;2.80;1.57;;;;;;;;;;757480;183;706112;-70
2024/04/05 04:43:26;;;;;;;4.73;1.63;;;;;;;;;;757841;183;634983;-69
2024/04/05 04:45:51;;;;;;;6.00;1.60;;;;;;;;;;757994;183;643551;-69
2024/04/05 04:48:17;;;;;;;3.60;1.83;;;;;;;;;;766096;183;635809;-70
2024/04/05 04:50:43;;;;;;;2.93;1.53;;;;;;;;;;762277;183;624004;-69
2024/04/05 04:53:10;;;;;;;7.37;1.63;;;;;;;;;;760198;183;632859;-69
2024/04/05 04:55:35;;;;;;;2.60;1.40;;;;;;;;;;759754;184;630279;-69
2024/04/05 04:58:01;;;;;;;3.80;2.00;;;;;;;;;;757571;183;638783;-69
2024/04/05 05:00:27;;;;;;;6.10;4.27;;;;;;;;;;759105;183;641556;-69
2024/04/05 05:02:53;;;;;;;7.17;2.70;;;;;;;;;;753549;184;684076;-71
2024/04/05 05:05:18;;;;;;;6.90;1.70;;;;;;;;;;760622;183;712586;-70
2024/04/05 05:07:45;;;;;;;2.60;1.53;;;;;;;;;;757462;183;866693;-69
2024/04/05 05:10:11;;;;;;;2.83;1.42;;;;;;;;;;755711;183;898267;-69
2024/04/05 05:12:36;;;;;;;4.70;1.70;;;;;;;;;;760047;184;916628;-70
2024/04/05 05:15:03;;;;;;;7.40;1.70;;;;;;;;;;757912;183;815144;-70
2024/04/05 05:17:28;;;;;;;3.50;1.50;;;;;;;;;;755967;183;643567;-69
2024/04/05 05:19:54;;;;;;;2.73;1.20;;;;;;;;;;757851;184;710992;-70
2024/04/05 05:22:20;;;;;;;2.40;1.47;;;;;;;;;;748672;184;1040687;-69
2024/04/05 05:24:46;;;;;;;2.80;1.70;;;;;;;;;;758386;183;919629;-69
2024/04/05 05:27:12;;;;;;;2.70;1.40;;;;;;;;;;751095;184;810338;-70
2024/04/05 05:29:38;;;;;;;3.90;1.60;;;;;;;;;;756787;183;917208;-70
2024/04/05 05:32:03;;;;;;;2.50;1.30;;;;;;;;;;755494;184;918446;-70
2024/04/05 05:34:29;;;;;;;3.03;1.80;;;;;;;;;;757534;183;813388;-70
2024/04/05 05:36:55;;;;;;;3.07;1.83;;;;;;;;;;752834;184;774173;-70
2024/04/05 05:39:21;;;;;;;3.22;1.80;;;;;;;;;;753070;184;765830;-69
2024/04/05 05:41:47;;;;;;;3.30;1.83;;;;;;;;;;734006;188;810310;-69
2024/04/05 05:45:22;;;;;;;4.78;2.50;;;;;;;;;;781757;170;811728;-69
2024/04/05 05:47:55;;;;;;;3.20;2.20;;;;;;;;;;764736;180;824415;-69
2024/04/05 05:50:21;;;;;;;4.10;2.00;;;;;;;;;;762102;182;805489;-69
2024/04/05 05:52:47;;;;;;;3.13;1.60;;;;;;;;;;763444;182;710226;-70
2024/04/05 05:55:13;;;;;;;4.03;1.90;;;;;;;;;;755722;183;812456;-71
2024/04/05 05:57:39;;;;;;;4.67;2.00;;;;;;;;;;760457;184;707732;-71
2024/04/05 06:00:09;;;;;;;4.40;2.13;;;;;;;;;;763711;183;611212;-71
2024/04/05 06:02:31;;;;;;;3.62;1.95;;;;;;;;;;756156;184;707578;-71
2024/04/05 06:04:57;;;;;;;4.93;2.33;;;;;;;;;;760848;184;872247;-71
2024/04/05 06:10:20;;;;;;;3.73;2.30;;;;;;;;;;784767;170;711501;-68
2024/04/05 06:12:46;;;;;;;4.10;1.80;;;;;;;;;;752021;183;842914;-68
2024/04/05 06:15:12;;;;;;;5.23;2.03;;;;;;;;;;749256;180;748635;-68
2024/04/05 06:17:38;;;;;;;7.63;1.80;;;;;;;;;;772456;180;763196;-68
2024/04/05 06:20:06;;;;;;;4.53;2.40;;;;;;;;;;765671;180;703492;-68
2024/04/05 06:22:31;;;;;;;3.50;1.70;;;;;;;;;;762481;181;802957;-68
2024/04/05 06:24:57;;;;;;;3.73;1.70;;;;;;;;;;766762;180;804342;-69
2024/04/05 06:27:23;;;;;;;2.97;1.77;;;;;;;;;;775516;180;748922;-68
2024/04/05 06:29:50;;;;;;;3.93;1.67;;;;;;;;;;763316;179;1073241;-68
2024/04/05 06:32:16;;;;;;;2.70;1.77;;;;;;;;;;765306;180;815200;-68
2024/04/05 06:34:41;;;;;;;6.10;1.70;;;;;;;;;;767303;181;793360;-68
2024/04/05 06:37:07;;;;;;;3.90;2.07;;;;;;;;;;765669;180;798115;-67
2024/04/05 06:40:20;;;;;;;4.67;2.00;;;;;;;;;;779404;173;920520;-70
2024/04/05 06:42:46;;;;;;;4.30;1.70;;;;;;;;;;763590;181;670119;-69
2024/04/05 06:45:12;;;;;;;6.50;1.47;;;;;;;;;;761570;182;811595;-69
2024/04/05 06:47:37;;;;;;;3.93;2.00;;;;;;;;;;771236;180;721003;-70
2024/04/05 06:50:04;;;;;;;3.30;1.30;;;;;;;;;;769762;180;715098;-69
2024/04/05 06:52:30;;;;;;;3.13;1.57;;;;;;;;;;760391;182;793698;-68
2024/04/05 06:54:55;;;;;;;5.50;1.53;;;;;;;;;;766344;182;623348;-69
2024/04/05 06:57:21;;;;;;;2.50;1.30;;;;;;;;;;765340;181;738753;-70
2024/04/05 06:59:47;;;;;;;3.47;1.70;;;;;;;;;;754531;183;724500;-69
2024/04/05 07:02:12;;;;;;;3.97;1.70;;;;;;;;;;755582;183;680644;-71
2024/04/05 07:04:38;;;;;;;4.57;1.57;;;;;;;;;;759583;184;652909;-69
2024/04/05 07:07:04;;;;;;;5.07;1.93;;;;;;;;;;772261;180;746675;-69
2024/04/05 07:09:30;;;;;;;5.23;1.50;;;;;;;;;;766897;181;813649;-69
2024/04/05 07:11:58;;;;;;;3.10;1.30;;;;;;;;;;767939;181;856653;-69
2024/04/05 07:14:22;;;;;;;3.23;1.57;;;;;;;;;;756077;183;628415;-68
2024/04/05 07:16:48;;;;;;;3.30;1.30;;;;;;;;;;762667;180;765154;-68
2024/04/05 07:19:14;;;;;;;3.27;1.43;;;;;;;;;;771957;180;771516;-70
2024/04/05 07:21:39;;;;;;;4.77;1.70;;;;;;;;;;772565;181;775141;-68
2024/04/05 07:24:05;;;;;;;6.33;2.00;;;;;;;;;;760522;183;889533;-68
2024/04/05 07:26:31;;;;;;;2.50;1.27;;;;;;;;;;759632;182;717643;-69
2024/04/05 07:30:22;;;;;;;4.30;1.90;;;;;;;;;;777461;170;909490;-68
2024/04/05 07:32:48;;;;;;;4.23;1.70;;;;;;;;;;768836;177;904794;-67
2024/04/05 07:35:14;;;;;;;3.33;1.63;;;;;;;;;;779317;177;817024;-67
2024/04/05 07:37:40;;;;;;;3.40;1.63;;;;;;;;;;770411;179;804868;-68
2024/04/05 07:40:06;;;;;;;3.20;1.80;;;;;;;;;;772637;177;943584;-67
2024/04/05 07:42:32;;;;;;;4.47;1.87;;;;;;;;;;779329;177;715286;-67
2024/04/05 07:44:59;;;;;;;3.33;1.60;;;;;;;;;;774562;177;832084;-67
2024/04/05 07:47:24;;;;;;;4.32;1.50;;;;;;;;;;775156;179;933396;-67
2024/04/05 07:49:52;;;;;;;4.10;1.97;;;;;;;;;;769995;177;912034;-68
2024/04/05 07:52:17;;;;;;;3.07;1.80;;;;;;;;;;773607;177;820136;-66
2024/04/05 07:54:43;;;;;;;4.63;1.90;;;;;;;;;;770921;177;914733;-66
2024/04/05 07:57:09;;;;;;;5.13;1.87;;;;;;;;;;772945;177;822629;-68
2024/04/05 07:59:36;;;;;;;5.17;3.50;;;;;;;;;;773202;177;801328;-67
2024/04/05 08:02:01;;;;;;;4.93;1.80;;;;;;;;;;774308;177;755109;-66
2024/04/05 08:04:27;;;;;;;3.90;1.60;;;;;;;;;;770632;177;922453;-68
2024/04/05 08:06:57;;;;;;;3.83;1.70;;;;;;;;;;778187;177;827179;-67
2024/04/05 08:10:22;;;;;;;4.13;2.23;;;;;;;;;;786226;170;719981;-66
2024/04/05 08:12:48;;;;;;;2.70;1.50;;;;;;;;;;763626;182;813825;-66
2024/04/05 08:15:14;;;;;;;5.65;1.90;;;;;;;;;;774718;180;820845;-65
2024/04/05 08:17:40;;;;;;;5.37;1.90;;;;;;;;;;780421;178;797350;-66
2024/04/05 08:20:06;;;;;;;5.33;2.07;;;;;;;;;;775968;180;716464;-65
2024/04/05 08:22:32;;;;;;;4.43;1.63;;;;;;;;;;777982;180;688748;-66
2024/04/05 08:24:58;;;;;;;4.30;1.43;;;;;;;;;;777381;180;849146;-66
2024/04/05 08:27:23;;;;;;;3.90;1.80;;;;;;;;;;774349;178;710286;-68
2024/04/05 08:29:51;;;;;;;5.57;2.03;;;;;;;;;;773155;179;855351;-66
2024/04/05 08:32:16;;;;;;;3.93;1.50;;;;;;;;;;774915;178;796864;-68
2024/04/05 08:34:42;;;;;;;4.20;1.73;;;;;;;;;;770530;181;909678;-65
2024/04/05 08:37:08;;;;;;;3.47;2.53;;;;;;;;;;771374;180;788232;-65
2024/04/05 08:39:34;;;;;;;4.07;1.80;;;;;;;;;;773266;180;735551;-66
2024/04/05 08:42:06;;;;;;;4.82;1.83;;;;;;;;;;779361;177;648643;-66
2024/04/05 08:44:32;;;;;;;4.15;1.42;;;;;;;;;;769688;179;867993;-66
2024/04/05 08:46:58;;;;;;;4.13;1.63;;;;;;;;;;762220;178;817523;-66
2024/04/05 08:49:26;;;;;;;3.30;1.50;;;;;;;;;;776857;180;773123;-66
2024/04/05 08:51:50;;;;;;;4.77;1.60;;;;;;;;;;771416;178;850537;-68
2024/04/05 08:54:15;;;;;;;6.93;1.80;;;;;;;;;;771740;178;902141;-65
2024/04/05 08:56:43;;;;;;;6.30;2.40;;;;;;;;;;769603;178;815136;-67
2024/04/05 08:59:07;;;;;;;6.30;1.97;;;;;;;;;;774511;181;711240;-67
2024/04/05 09:01:33;;;;;;;2.83;1.57;;;;;;;;;;771527;179;892451;-66
2024/04/05 09:03:58;;;;;;;3.47;1.60;;;;;;;;;;774711;177;848148;-67
2024/04/05 09:06:25;;;;;;;4.03;2.10;;;;;;;;;;779132;180;622833;-67
2024/04/05 09:08:50;;;;;;;4.50;1.70;;;;;;;;;;773530;180;808967;-68
2024/04/05 09:11:16;;;;;;;4.50;2.10;;;;;;;;;;773651;180;813634;-67
2024/04/05 09:13:42;;;;;;;3.47;1.87;;;;;;;;;;777502;179;918944;-66
2024/04/05 09:16:08;;;;;;;6.30;1.90;;;;;;;;;;774061;180;910330;-66
2024/04/05 09:18:34;;;;;;;8.67;1.90;;;;;;;;;;771790;179;918052;-67
2024/04/05 09:20:59;;;;;;;4.33;1.43;;;;;;;;;;782311;177;815487;-67
2024/04/05 09:23:25;;;;;;;4.83;2.23;;;;;;;;;;776825;177;718685;-67
2024/04/05 09:25:57;;;;;;;4.50;1.83;;;;;;;;;;771379;180;719917;-66
2024/04/05 09:28:23;;;;;;;4.53;1.70;;;;;;;;;;774813;177;817204;-67
2024/04/05 09:30:49;;;;;;;5.60;1.87;;;;;;;;;;780017;178;804275;-66
2024/04/05 09:33:18;;;;;;;5.80;2.10;;;;;;;;;;775646;178;812500;-66
2024/04/05 09:35:43;;;;;;;10.43;2.23;;;;;;;;;;768816;177;726879;-67
2024/04/05 09:38:09;;;;;;;2.90;1.60;;;;;;;;;;777678;180;872999;-67
2024/04/05 09:40:35;;;;;;;3.83;1.57;;;;;;;;;;772812;178;916919;-66
2024/04/05 09:43:01;;;;;;;7.83;2.83;;;;;;;;;;771468;180;802723;-66
2024/04/05 09:45:27;;;;;;;4.53;1.90;;;;;;;;;;773188;180;803975;-68
2024/04/05 09:47:53;;;;;;;3.90;1.70;;;;;;;;;;779698;178;813068;-67
2024/04/05 09:50:20;;;;;;;5.57;2.00;;;;;;;;;;771663;179;817401;-65
2024/04/05 09:52:46;;;;;;;8.63;2.47;;;;;;;;;;769642;178;862562;-66
2024/04/05 09:55:13;;;;;;;5.50;2.10;;;;;;;;;;774495;180;912110;-66
2024/04/05 09:57:37;;;;;;;4.47;2.10;;;;;;;;;;772768;178;850429;-66
2024/04/05 10:00:14;;;;;;;4.83;1.90;;;;;;;;;;772508;180;918797;-67
2024/04/05 10:02:36;;;;;;;4.50;1.90;;;;;;;;;;773436;179;818396;-67
2024/04/05 10:05:02;;;;;;;3.60;1.77;;;;;;;;;;768841;180;911724;-66
2024/04/05 10:07:28;;;;;;;4.40;2.20;;;;;;;;;;773863;180;705519;-67
2024/04/05 10:09:54;;;;;;;5.10;2.00;;;;;;;;;;774402;177;795336;-67
2024/04/05 10:12:22;;;;;;;9.03;1.90;;;;;;;;;;778835;178;778610;-66
2024/04/05 10:14:51;;;;;;;5.63;2.50;;;;;;;;;;771823;180;903792;-66
2024/04/05 10:17:18;;;;;;;6.95;2.47;;;;;;;;;;772056;177;900801;-66
2024/04/05 10:19:44;;;;;;;4.80;2.07;;;;;;;;;;779220;178;642732;-67
2024/04/05 10:22:11;;;;;;;3.63;1.53;;;;;;;;;;769824;178;964285;-66
2024/04/05 10:24:37;;;;;;;5.20;2.03;;;;;;;;;;775385;177;744522;-66
2024/04/05 10:27:04;;;;;;;11.17;3.30;;;;;;;;;;769269;178;921741;-66
2024/04/05 10:29:29;;;;;;;4.67;2.10;;;;;;;;;;779189;178;713901;-67
2024/04/05 10:31:59;;;;;;;3.17;1.50;;;;;;;;;;770908;180;896916;-66
2024/04/05 10:34:25;;;;;;;15.25;2.37;;;;;;;;;;773671;176;921896;-65
2024/04/05 10:36:51;;;;;;;5.60;1.87;;;;;;;;;;779156;176;897568;-66
2024/04/05 10:39:18;;;;;;;6.00;1.90;;;;;;;;;;774789;180;788204;-66
2024/04/05 10:41:43;;;;;;;4.50;1.73;;;;;;;;;;772946;180;808460;-66
2024/04/05 10:44:09;;;;;;;7.60;2.03;;;;;;;;;;775263;180;932685;-67
2024/04/05 10:46:35;;;;;;;4.13;1.23;;;;;;;;;;775340;178;804918;-68
2024/04/05 10:49:01;;;;;;;8.07;1.20;;;;;;;;;;774672;180;919100;-65
2024/04/05 10:51:27;;;;;;;8.10;1.83;;;;;;;;;;771245;179;824739;-66
2024/04/05 10:53:54;;;;;;;9.30;1.77;;;;;;;;;;774148;181;820636;-66
2024/04/05 10:56:18;;;;;;;7.27;1.87;;;;;;;;;;768776;180;918112;-66
2024/04/05 10:58:44;;;;;;;5.33;1.70;;;;;;;;;;774835;177;906739;-66
2024/04/05 11:01:10;;;;;;;3.20;1.27;;;;;;;;;;777873;179;633047;-67
2024/04/05 11:03:36;;;;;;;4.43;1.60;;;;;;;;;;763972;178;910742;-66
2024/04/05 11:06:02;;;;;;;5.13;1.60;;;;;;;;;;773940;179;704500;-66
2024/04/05 11:10:21;;;;;;;7.85;2.50;;;;;;;;;;778309;170;893522;-67
2024/04/05 11:12:47;;;;;;;7.17;1.90;;;;;;;;;;772213;179;704706;-67
2024/04/05 11:15:13;;;;;;;5.17;1.90;;;;;;;;;;765389;182;816214;-67
2024/04/05 11:17:39;;;;;;;5.13;1.57;;;;;;;;;;757816;181;810007;-67
2024/04/05 11:20:05;;;;;;;5.00;1.47;;;;;;;;;;757402;183;696984;-67
2024/04/05 11:22:30;;;;;;;5.43;1.23;;;;;;;;;;759684;183;804785;-66
2024/04/05 11:24:56;;;;;;;4.10;1.60;;;;;;;;;;756567;183;874254;-67
2024/04/05 11:27:22;;;;;;;4.87;1.60;;;;;;;;;;765797;182;702398;-67
2024/04/05 11:29:48;;;;;;;5.62;1.75;;;;;;;;;;757863;183;926334;-68
2024/04/05 11:32:14;;;;;;;5.53;1.87;;;;;;;;;;756582;183;751591;-66
2024/04/05 11:34:41;;;;;;;5.37;1.90;;;;;;;;;;758840;184;785968;-66
2024/04/05 11:37:06;;;;;;;8.73;2.07;;;;;;;;;;758392;184;765233;-69
2024/04/05 11:39:31;;;;;;;4.63;1.47;;;;;;;;;;754631;183;737749;-67
2024/04/05 11:41:57;;;;;;;4.50;1.37;;;;;;;;;;756535;183;772720;-68
2024/04/05 11:44:24;;;;;;;5.33;1.67;;;;;;;;;;760877;184;753109;-71
2024/04/05 11:46:49;;;;;;;6.00;2.70;;;;;;;;;;757901;183;844970;-70
2024/04/05 11:49:15;;;;;;;7.90;1.83;;;;;;;;;;758618;183;625849;-70
2024/04/05 11:51:41;;;;;;;6.10;1.77;;;;;;;;;;764309;183;617469;-70
2024/04/05 11:54:07;;;;;;;10.20;1.97;;;;;;;;;;759903;184;756661;-69
2024/04/05 11:56:33;;;;;;;3.70;1.67;;;;;;;;;;760406;183;689452;-70
2024/04/05 11:58:58;;;;;;;5.10;1.60;;;;;;;;;;760794;183;759664;-70
2024/04/05 12:01:24;;;;;;;5.80;1.77;;;;;;;;;;759121;183;736285;-69
2024/04/05 12:03:50;;;;;;;5.20;2.07;;;;;;;;;;756960;183;670764;-70
2024/04/05 12:06:16;;;;;;;4.80;1.60;;;;;;;;;;760179;184;659191;-70
2024/04/05 12:08:42;;;;;;;4.87;1.20;;;;;;;;;;756371;183;706814;-69
2024/04/05 12:11:08;;;;;;;7.57;1.90;;;;;;;;;;755933;183;673087;-70
2024/04/05 12:13:34;;;;;;;6.73;2.10;;;;;;;;;;759174;184;746876;-70
2024/04/05 12:16:00;;;;;;;4.70;1.30;;;;;;;;;;766170;183;696050;-69
2024/04/05 12:18:26;;;;;;;6.63;1.73;;;;;;;;;;758875;183;815076;-69
2024/04/05 12:20:51;;;;;;;4.27;1.53;;;;;;;;;;761721;181;937680;-70
2024/04/05 12:23:18;;;;;;;7.50;1.90;;;;;;;;;;769287;182;815841;-66
2024/04/05 12:25:43;;;;;;;7.67;1.60;;;;;;;;;;760510;183;811324;-67
2024/04/05 12:28:09;;;;;;;8.53;1.53;;;;;;;;;;753648;183;911498;-68
2024/04/05 12:30:35;;;;;;;4.37;1.20;;;;;;;;;;760333;183;799440;-67
2024/04/05 12:33:01;;;;;;;44.47;4.90;;;;;;;;;;761064;183;963412;-67
2024/04/05 12:35:27;;;;;;;4.37;1.30;;;;;;;;;;755773;183;888617;-67
2024/04/05 12:37:54;;;;;;;6.10;1.70;;;;;;;;;;760510;181;703927;-67
2024/04/05 12:40:24;;;;;;;4.33;1.93;;;;;;;;;;755101;183;890434;-70
2024/04/05 12:42:44;;;;;;;4.13;1.77;;;;;;;;;;756768;183;920480;-69
2024/04/05 12:45:10;;;;;;;3.60;1.30;;;;;;;;;;758093;183;918512;-70
2024/04/05 12:47:36;;;;;;;5.13;1.67;;;;;;;;;;759549;183;950651;-70
2024/04/05 12:50:02;;;;;;;6.17;2.20;;;;;;;;;;751820;184;810592;-68
2024/04/05 12:52:27;;;;;;;4.20;1.30;;;;;;;;;;752062;183;840863;-69
2024/04/05 12:54:53;;;;;;;14.20;3.00;;;;;;;;;;756857;183;1337234;-69
2024/04/05 12:57:21;;;;;;;5.07;1.63;;;;;;;;;;760616;183;881408;-69
2024/04/05 12:59:45;;;;;;;6.27;2.60;;;;;;;;;;753064;184;946463;-70
2024/04/05 13:02:11;;;;;;;6.93;1.40;;;;;;;;;;762181;183;812589;-70
2024/04/05 13:04:37;;;;;;;10.73;2.03;;;;;;;;;;749464;184;786653;-70
2024/04/05 13:07:03;;;;;;;6.07;1.47;;;;;;;;;;758994;183;809940;-69
2024/04/05 13:09:28;;;;;;;7.57;3.73;;;;;;;;;;759727;183;1015625;-69
2024/04/05 13:11:54;;;;;;;8.30;1.80;;;;;;;;;;758104;184;759398;-70
2024/04/05 13:14:24;;;;;;;3.63;1.70;;;;;;;;;;752757;184;820822;-70
2024/04/05 13:16:47;;;;;;;7.73;2.00;;;;;;;;;;756488;183;769157;-70
2024/04/05 13:19:12;;;;;;;4.30;1.40;;;;;;;;;;766730;181;805658;-67
2024/04/05 13:21:38;;;;;;;12.17;1.53;;;;;;;;;;758476;183;826071;-67
2024/04/05 13:24:04;;;;;;;6.57;1.27;;;;;;;;;;760254;183;638062;-67
2024/04/05 13:26:30;;;;;;;5.70;2.60;;;;;;;;;;763049;184;716866;-67
2024/04/05 13:28:56;;;;;;;14.13;2.13;;;;;;;;;;756183;183;818218;-67
2024/04/05 13:31:21;;;;;;;7.87;1.67;;;;;;;;;;761834;183;680188;-67
2024/04/05 13:33:49;;;;;;;6.33;1.57;;;;;;;;;;761062;182;804425;-67
2024/04/05 13:36:14;;;;;;;3.90;1.50;;;;;;;;;;759582;183;672463;-67
2024/04/05 13:38:40;;;;;;;6.43;1.37;;;;;;;;;;760980;183;794229;-67
2024/04/05 13:41:06;;;;;;;5.30;1.60;;;;;;;;;;760743;183;786230;-67
2024/04/05 13:43:32;;;;;;;8.43;1.70;;;;;;;;;;759009;183;818220;-67
2024/04/05 13:46:06;;;;;;;4.90;1.33;;;;;;;;;;755350;183;810861;-67
2024/04/05 13:48:31;;;;;;;5.65;2.00;;;;;;;;;;762358;183;708753;-67
2024/04/05 13:50:57;;;;;;;5.37;1.40;;;;;;;;;;753847;183;831995;-67
2024/04/05 13:53:22;;;;;;;4.27;1.50;;;;;;;;;;763877;183;754647;-67
2024/04/05 13:55:49;;;;;;;4.73;1.63;;;;;;;;;;767222;180;849752;-67
2024/04/05 13:58:14;;;;;;;4.80;1.87;;;;;;;;;;767177;182;787072;-67
2024/04/05 14:00:40;;;;;;;6.40;2.30;;;;;;;;;;760373;183;819570;-65
2024/04/05 14:03:06;;;;;;;4.53;1.47;;;;;;;;;;758155;184;888632;-69
2024/04/05 14:05:32;;;;;;;3.40;1.50;;;;;;;;;;756711;184;841884;-67
2024/04/05 14:07:58;;;;;;;3.80;1.63;;;;;;;;;;762729;183;902282;-67
2024/04/05 14:10:23;;;;;;;5.90;1.57;;;;;;;;;;754387;183;816527;-67
2024/04/05 14:12:49;;;;;;;6.28;2.20;;;;;;;;;;755224;184;914080;-70
2024/04/05 14:15:16;;;;;;;5.73;1.47;;;;;;;;;;761118;183;613540;-68
2024/04/05 14:17:41;;;;;;;2.90;1.30;;;;;;;;;;760290;183;668843;-68
2024/04/05 14:20:09;;;;;;;6.43;1.50;;;;;;;;;;755576;184;829814;-69
2024/04/05 14:22:33;;;;;;;3.23;1.47;;;;;;;;;;765290;183;630462;-70
2024/04/05 14:24:59;;;;;;;6.70;1.60;;;;;;;;;;761137;183;806195;-69
2024/04/05 14:27:24;;;;;;;6.77;1.53;;;;;;;;;;760749;183;907535;-70
2024/04/05 14:29:51;;;;;;;8.20;2.10;;;;;;;;;;763048;183;613545;-69